Snowshoe, WV (26209)

8:19 AM EDT on August 25, 2016 (GMT -0400)
Snowshoe | | Change Station

Elev 4662 ft 38.41 °N, 80.00 °W | Updated 16 seconds ago

Mostly Cloudy
Mostly Cloudy
64.2 °F
Feels Like 64.2 °F
N
12.1
Wind Variable Wind from WNW
Gusts 15.0 mph

Today
High -- | Low -- °F
--% Chance of Precip.
Yesterday
High -- | Low -- °F
Precip. -- in
Pressure 30.27 in
Visibility 4.0 miles
Clouds Mostly Cloudy 400 ft
Dew Point 58 °F
Humidity 81%
Rainfall 0.00 in
Snow Depth Not available.
6:44 AM 7:59 PM
Last Quarter, 46% visible
METAR KHSP 251155Z AUTO 27012KT 4SM BR BKN004 20/20 A3027 RMK AO2 T01950195 10195 20185
Pressure 30.27 in
Visibility 4.0 miles
Clouds Mostly Cloudy 400 ft
Dew Point 58 °F
Humidity 81%
Rainfall 0.00 in
Snow Depth Not available.
6:44 AM 7:59 PM
Last Quarter, 46% visible
METAR KHSP 251155Z AUTO 27012KT 4SM BR BKN004 20/20 A3027 RMK AO2 T01950195 10195 20185

10-Day Weather Forecast

Almanac

Astronomy

Aug. 25, 2016 Rise Set
Actual Time
Civil Twilight
Nautical Twilight
Astronomical Twilight
Moon
Length of Visible Light
Length of Day
Tomorrow will be .
, % of the Moon is Illuminated

Today's Extremes

State Highs State Lows

Community

WunderPhotos

Upload Photos

1,934,833 photos uploaded!

WunderBlog® & News

Nearby

Air Quality

  Air Quality AQ Index Pollutant
Not available.

Snow Depth

Station Depth Elevation

Earthquake Activity

City Distance Mag. Time & Date
Minimum magnitude displayed is 2.5.

Coastal Water Temperatures

Place Temperature

Stations

Nearby Weather Stations

Station Location Temp. Windchill Dew Point Humidity Wind Precip. Elev Updated Type
                   

Watches & Warnings

There are currently no watches in effect.